Wetterdaten: Dienstag, 18.06.2019
Datum Zeit Temp. Auen Feucht Auen Luftdruck Regen Richtung Richtung Windben
18.06.2019 00:00 16,1 C 84 % 1016,1 hPa 0,0 mm O-SO 123 1,6 km/h (1 Bft)
18.06.2019 00:05 16,0 C 85 % 1016,1 hPa 0,0 mm O-SO 123 1,6 km/h (1 Bft)
18.06.2019 00:10 15,9 C 85 % 1016,1 hPa 0,0 mm O-SO 123 0,0 km/h (0 Bft)
18.06.2019 00:15 15,9 C 85 % 1016,1 hPa 0,0 mm O-SO 123 3,2 km/h (1 Bft)
18.06.2019 00:20 15,8 C 85 % 1016,1 hPa 0,0 mm O-SO 123 1,6 km/h (1 Bft)
18.06.2019 00:25 15,7 C 85 % 1016,1 hPa 0,0 mm O-SO 123 1,6 km/h (1 Bft)
18.06.2019 00:30 15,7 C 86 % 1016,1 hPa 0,0 mm O-SO 123 1,6 km/h (1 Bft)
18.06.2019 00:35 15,7 C 86 % 1016,1 hPa 0,0 mm O-SO 123 0,0 km/h (0 Bft)
18.06.2019 00:40 15,7 C 86 % 1016,1 hPa 0,0 mm O-SO 123 0,0 km/h (0 Bft)
18.06.2019 00:45 15,7 C 86 % 1016,1 hPa 0,0 mm O-SO 123 0,0 km/h (0 Bft)
18.06.2019 00:50 15,7 C 86 % 1016,1 hPa 0,0 mm O-SO 123 1,6 km/h (1 Bft)
18.06.2019 00:55 15,7 C 87 % 1016,0 hPa 0,0 mm O-SO 123 0,0 km/h (0 Bft)
18.06.2019 01:00 15,6 C 87 % 1016,1 hPa 0,0 mm O-SO 123 0,0 km/h (0 Bft)
18.06.2019 01:05 15,6 C 87 % 1016,0 hPa 0,0 mm O-SO 123 0,0 km/h (0 Bft)
18.06.2019 01:10 15,6 C 87 % 1016,0 hPa 0,0 mm O-SO 123 0,0 km/h (0 Bft)
18.06.2019 01:15 15,6 C 87 % 1016,0 hPa 0,0 mm O-SO 123 0,0 km/h (0 Bft)
18.06.2019 01:20 15,5 C 87 % 1016,1 hPa 0,0 mm O-SO 123 1,6 km/h (1 Bft)
18.06.2019 01:25 15,4 C 87 % 1016,1 hPa 0,0 mm O-SO 123 1,6 km/h (1 Bft)
18.06.2019 01:30 15,4 C 87 % 1016,1 hPa 0,0 mm O-SO 123 1,6 km/h (1 Bft)
18.06.2019 01:35 15,3 C 87 % 1015,9 hPa 0,0 mm O-SO 123 0,0 km/h (0 Bft)
18.06.2019 01:40 15,2 C 87 % 1015,9 hPa 0,0 mm O-SO 123 1,6 km/h (1 Bft)
18.06.2019 01:45 15,1 C 87 % 1016,0 hPa 0,0 mm O-SO 123 0,0 km/h (0 Bft)
18.06.2019 01:50 15,1 C 87 % 1015,9 hPa 0,0 mm O-SO 123 0,0 km/h (0 Bft)
18.06.2019 01:55 15,0 C 87 % 1015,9 hPa 0,0 mm O-SO 123 0,0 km/h (0 Bft)
18.06.2019 02:00 14,9 C 87 % 1015,8 hPa 0,0 mm O-SO 123 0,0 km/h (0 Bft)
18.06.2019 02:05 14,8 C 87 % 1015,8 hPa 0,0 mm O-SO 123 0,0 km/h (0 Bft)
18.06.2019 02:10 14,7 C 87 % 1015,8 hPa 0,0 mm O-SO 123 0,0 km/h (0 Bft)
18.06.2019 02:15 14,6 C 87 % 1015,8 hPa 0,0 mm O-SO 123 0,0 km/h (0 Bft)
18.06.2019 02:20 14,6 C 87 % 1015,8 hPa 0,0 mm O-SO 123 0,0 km/h (0 Bft)
18.06.2019 02:25 14,5 C 87 % 1015,8 hPa 0,0 mm O-SO 123 0,0 km/h (0 Bft)
18.06.2019 02:30 14,3 C 87 % 1015,8 hPa 0,0 mm O-SO 123 0,0 km/h (0 Bft)
18.06.2019 02:35 14,3 C 87 % 1015,8 hPa 0,0 mm O-SO 123 0,0 km/h (0 Bft)
18.06.2019 02:40 14,2 C 87 % 1015,8 hPa 0,0 mm O-SO 123 0,0 km/h (0 Bft)
18.06.2019 02:45 14,1 C 87 % 1015,8 hPa 0,0 mm O-SO 123 0,0 km/h (0 Bft)
18.06.2019 02:50 14,1 C 88 % 1015,9 hPa 0,0 mm O-SO 123 0,0 km/h (0 Bft)
18.06.2019 02:55 14,0 C 88 % 1015,8 hPa 0,0 mm O-SO 123 0,0 km/h (0 Bft)
18.06.2019 03:00 13,9 C 88 % 1015,8 hPa 0,0 mm O-SO 123 0,0 km/h (0 Bft)
18.06.2019 03:05 13,8 C 88 % 1015,7 hPa 0,0 mm SO 128 1,6 km/h (1 Bft)
18.06.2019 03:10 13,8 C 88 % 1015,7 hPa 0,0 mm SO 128 0,0 km/h (0 Bft)
18.06.2019 03:15 13,7 C 88 % 1015,6 hPa 0,0 mm SO 128 0,0 km/h (0 Bft)
18.06.2019 03:20 13,7 C 88 % 1015,5 hPa 0,0 mm SO 128 0,0 km/h (0 Bft)
18.06.2019 03:25 13,6 C 88 % 1015,6 hPa 0,0 mm SO 128 0,0 km/h (0 Bft)
18.06.2019 03:30 13,6 C 88 % 1015,6 hPa 0,0 mm SO 127 0,0 km/h (0 Bft)
18.06.2019 03:35 13,4 C 88 % 1015,5 hPa 0,0 mm SO 128 0,0 km/h (0 Bft)
18.06.2019 03:40 13,4 C 88 % 1015,5 hPa 0,0 mm SO 128 0,0 km/h (0 Bft)
18.06.2019 03:45 13,3 C 88 % 1015,5 hPa 0,0 mm SO 127 0,0 km/h (0 Bft)
18.06.2019 03:50 13,3 C 88 % 1015,5 hPa 0,0 mm SO 128 0,0 km/h (0 Bft)
18.06.2019 03:55 13,2 C 88 % 1015,6 hPa 0,0 mm SO 128 0,0 km/h (0 Bft)
18.06.2019 04:00 13,1 C 88 % 1015,5 hPa 0,0 mm SO 127 0,0 km/h (0 Bft)
18.06.2019 04:05 13,1 C 89 % 1015,5 hPa 0,0 mm SO 127 1,6 km/h (1 Bft)
18.06.2019 04:10 13,0 C 89 % 1015,4 hPa 0,0 mm SO 128 0,0 km/h (0 Bft)
18.06.2019 04:15 12,9 C 89 % 1015,4 hPa 0,0 mm SO 128 0,0 km/h (0 Bft)
18.06.2019 04:20 12,9 C 89 % 1015,4 hPa 0,0 mm SO 128 0,0 km/h (0 Bft)
18.06.2019 04:25 12,8 C 89 % 1015,4 hPa 0,0 mm SO 128 0,0 km/h (0 Bft)
18.06.2019 04:30 12,8 C 89 % 1015,5 hPa 0,0 mm SO 128 0,0 km/h (0 Bft)
18.06.2019 04:35 12,7 C 89 % 1015,5 hPa 0,0 mm SO 128 0,0 km/h (0 Bft)
18.06.2019 04:40 12,6 C 89 % 1015,5 hPa 0,0 mm SO 128 0,0 km/h (0 Bft)
18.06.2019 04:45 12,6 C 89 % 1015,4 hPa 0,0 mm SO 127 0,0 km/h (0 Bft)
18.06.2019 04:50 12,5 C 89 % 1015,5 hPa 0,0 mm SO 127 0,0 km/h (0 Bft)
18.06.2019 04:55 12,4 C 89 % 1015,5 hPa 0,0 mm SO 128 0,0 km/h (0 Bft)
18.06.2019 05:00 12,4 C 89 % 1015,5 hPa 0,0 mm SO 127 0,0 km/h (0 Bft)
18.06.2019 05:05 12,4 C 89 % 1015,5 hPa 0,0 mm SO 128 0,0 km/h (0 Bft)
18.06.2019 05:10 12,4 C 90 % 1015,6 hPa 0,0 mm SO 128 0,0 km/h (0 Bft)
18.06.2019 05:15 12,4 C 90 % 1015,6 hPa 0,0 mm SO 128 0,0 km/h (0 Bft)
18.06.2019 05:20 12,4 C 90 % 1015,6 hPa 0,0 mm SO 127 0,0 km/h (0 Bft)
18.06.2019 05:25 12,4 C 90 % 1015,6 hPa 0,0 mm SO 128 0,0 km/h (0 Bft)
18.06.2019 05:30 12,4 C 90 % 1015,6 hPa 0,0 mm SO 128 0,0 km/h (0 Bft)
18.06.2019 05:35 12,4 C 90 % 1015,6 hPa 0,0 mm SO 128 0,0 km/h (0 Bft)
18.06.2019 05:40 12,3 C 90 % 1015,6 hPa 0,0 mm SO 128 0,0 km/h (0 Bft)
18.06.2019 05:45 12,3 C 90 % 1015,5 hPa 0,0 mm SO 128 0,0 km/h (0 Bft)
18.06.2019 05:50 12,3 C 90 % 1015,5 hPa 0,0 mm SW 225 3,2 km/h (1 Bft)
18.06.2019 05:55 12,3 C 90 % 1015,5 hPa 0,0 mm SW 225 0,0 km/h (0 Bft)
18.06.2019 06:00 12,3 C 90 % 1015,5 hPa 0,0 mm SW 225 0,0 km/h (0 Bft)
18.06.2019 06:05 12,3 C 91 % 1015,4 hPa 0,0 mm SW 225 0,0 km/h (0 Bft)
18.06.2019 06:10 12,3 C 91 % 1015,4 hPa 0,0 mm SW 225 0,0 km/h (0 Bft)
18.06.2019 06:15 12,4 C 91 % 1015,4 hPa 0,0 mm SW 225 0,0 km/h (0 Bft)
18.06.2019 06:20 12,5 C 91 % 1015,4 hPa 0,0 mm SW 225 0,0 km/h (0 Bft)
18.06.2019 06:25 12,6 C 91 % 1015,3 hPa 0,0 mm SW 225 0,0 km/h (0 Bft)
18.06.2019 06:30 12,7 C 91 % 1015,3 hPa 0,0 mm SW 225 0,0 km/h (0 Bft)
18.06.2019 06:35 13,1 C 92 % 1015,4 hPa 0,0 mm SW 225 1,6 km/h (1 Bft)
18.06.2019 06:40 13,7 C 92 % 1015,5 hPa 0,0 mm SW 225 0,0 km/h (0 Bft)
18.06.2019 06:45 13,9 C 92 % 1015,5 hPa 0,0 mm SW 225 0,0 km/h (0 Bft)
18.06.2019 06:50 14,2 C 92 % 1015,4 hPa 0,0 mm SW 225 0,0 km/h (0 Bft)
18.06.2019 06:55 14,6 C 92 % 1015,5 hPa 0,0 mm SW 225 0,0 km/h (0 Bft)
18.06.2019 07:00 14,8 C 92 % 1015,5 hPa 0,0 mm SW 225 0,0 km/h (0 Bft)
18.06.2019 07:05 15,1 C 92 % 1015,4 hPa 0,0 mm SW 225 0,0 km/h (0 Bft)
18.06.2019 07:10 15,3 C 92 % 1015,4 hPa 0,0 mm SW 225 0,0 km/h (0 Bft)
18.06.2019 07:15 15,2 C 91 % 1015,4 hPa 0,0 mm SW 225 1,6 km/h (1 Bft)
18.06.2019 07:20 15,5 C 91 % 1015,4 hPa 0,0 mm SW 225 0,0 km/h (0 Bft)
18.06.2019 07:25 15,9 C 92 % 1015,5 hPa 0,0 mm SO 128 3,2 km/h (1 Bft)
18.06.2019 07:30 16,3 C 91 % 1015,4 hPa 0,0 mm O-SO 123 4,8 km/h (1 Bft)
18.06.2019 07:35 16,4 C 91 % 1015,5 hPa 0,0 mm O-NO 73 6,4 km/h (2 Bft)
18.06.2019 07:40 16,4 C 91 % 1015,5 hPa 0,0 mm O 94 8,0 km/h (2 Bft)
18.06.2019 07:45 16,5 C 90 % 1015,5 hPa 0,0 mm O 94 8,0 km/h (2 Bft)
18.06.2019 07:50 16,5 C 90 % 1015,6 hPa 0,0 mm O-NO 78 9,7 km/h (2 Bft)
18.06.2019 07:55 16,8 C 90 % 1015,6 hPa 0,0 mm O-NO 72 9,7 km/h (2 Bft)
18.06.2019 08:00 16,9 C 89 % 1015,6 hPa 0,0 mm O-SO 114 11,3 km/h (2 Bft)
18.06.2019 08:05 17,2 C 88 % 1015,6 hPa 0,0 mm O-SO 108 8,0 km/h (2 Bft)
18.06.2019 08:10 17,3 C 88 % 1015,6 hPa 0,0 mm O-SO 102 8,0 km/h (2 Bft)
18.06.2019 08:15 17,6 C 87 % 1015,5 hPa 0,0 mm S-SO 148 8,0 km/h (2 Bft)
18.06.2019 08:20 17,7 C 87 % 1015,6 hPa 0,0 mm SO 144 9,7 km/h (2 Bft)
18.06.2019 08:25 17,7 C 86 % 1015,6 hPa 0,0 mm SO 142 8,0 km/h (2 Bft)
18.06.2019 08:30 17,9 C 86 % 1015,5 hPa 0,0 mm SO 128 6,4 km/h (2 Bft)
18.06.2019 08:35 18,2 C 86 % 1015,5 hPa 0,0 mm O-SO 119 6,4 km/h (2 Bft)
18.06.2019 08:40 18,1 C 86 % 1015,6 hPa 0,0 mm SO 132 8,0 km/h (2 Bft)
18.06.2019 08:45 18,6 C 86 % 1015,6 hPa 0,0 mm SO 131 6,4 km/h (2 Bft)
18.06.2019 08:50 18,6 C 86 % 1015,7 hPa 0,0 mm O-SO 114 4,8 km/h (1 Bft)
18.06.2019 08:55 18,8 C 84 % 1015,6 hPa 0,0 mm SO 136 8,0 km/h (2 Bft)
18.06.2019 09:00 18,9 C 84 % 1015,6 hPa 0,0 mm SO 125 8,0 km/h (2 Bft)
18.06.2019 09:05 19,1 C 83 % 1015,7 hPa 0,0 mm SO 127 9,7 km/h (2 Bft)
18.06.2019 09:10 19,3 C 83 % 1015,6 hPa 0,0 mm O-SO 122 6,4 km/h (2 Bft)
18.06.2019 09:15 19,6 C 82 % 1015,6 hPa 0,0 mm O-SO 111 6,4 km/h (2 Bft)
18.06.2019 09:20 19,6 C 82 % 1015,6 hPa 0,0 mm O-SO 121 6,4 km/h (2 Bft)
18.06.2019 09:25 19,9 C 81 % 1015,6 hPa 0,0 mm O-SO 110 8,0 km/h (2 Bft)
18.06.2019 09:30 20,1 C 80 % 1015,5 hPa 0,0 mm NO 39 9,7 km/h (2 Bft)
18.06.2019 09:35 20,3 C 79 % 1015,5 hPa 0,0 mm O-NO 71 9,7 km/h (2 Bft)
18.06.2019 09:40 20,7 C 80 % 1015,4 hPa 0,0 mm O 94 8,0 km/h (2 Bft)
18.06.2019 09:45 20,8 C 79 % 1015,4 hPa 0,0 mm O 94 6,4 km/h (2 Bft)
18.06.2019 09:50 20,9 C 79 % 1015,4 hPa 0,0 mm O-SO 105 8,0 km/h (2 Bft)
18.06.2019 09:55 21,2 C 77 % 1015,4 hPa 0,0 mm O-NO 63 6,4 km/h (2 Bft)
18.06.2019 10:00 21,5 C 76 % 1015,2 hPa 0,0 mm SO 138 8,0 km/h (2 Bft)
18.06.2019 10:05 21,7 C 77 % 1015,2 hPa 0,0 mm O 98 6,4 km/h (2 Bft)
18.06.2019 10:10 21,7 C 75 % 1015,2 hPa 0,0 mm O 92 9,7 km/h (2 Bft)
18.06.2019 10:15 21,9 C 75 % 1015,2 hPa 0,0 mm O 90 9,7 km/h (2 Bft)
18.06.2019 10:20 22,0 C 74 % 1015,2 hPa 0,0 mm O 80 9,7 km/h (2 Bft)
18.06.2019 10:25 22,1 C 75 % 1015,1 hPa 0,0 mm O-NO 76 8,0 km/h (2 Bft)
18.06.2019 10:30 22,1 C 71 % 1015,1 hPa 0,0 mm SO 127 6,4 km/h (2 Bft)
18.06.2019 10:35 22,4 C 69 % 1015,1 hPa 0,0 mm O 101 8,0 km/h (2 Bft)
18.06.2019 10:40 22,4 C 71 % 1015,0 hPa 0,0 mm O-SO 109 6,4 km/h (2 Bft)
18.06.2019 10:45 22,6 C 69 % 1015,0 hPa 0,0 mm O 79 8,0 km/h (2 Bft)
18.06.2019 10:50 22,9 C 70 % 1015,0 hPa 0,0 mm SO 133 9,7 km/h (2 Bft)
18.06.2019 10:55 22,9 C 70 % 1015,1 hPa 0,0 mm O 96 9,7 km/h (2 Bft)
18.06.2019 11:00 23,2 C 69 % 1015,0 hPa 0,0 mm O-NO 77 8,0 km/h (2 Bft)
18.06.2019 11:05 23,4 C 70 % 1015,0 hPa 0,0 mm SO 132 9,7 km/h (2 Bft)
18.06.2019 11:10 23,4 C 69 % 1015,0 hPa 0,0 mm S-SO 150 11,3 km/h (2 Bft)
18.06.2019 11:15 23,3 C 68 % 1014,9 hPa 0,0 mm O-SO 123 9,7 km/h (2 Bft)
18.06.2019 11:20 23,6 C 66 % 1014,9 hPa 0,0 mm O 87 12,9 km/h (3 Bft)
18.06.2019 11:25 23,7 C 67 % 1014,9 hPa 0,0 mm O-SO 110 9,7 km/h (2 Bft)
18.06.2019 11:30 23,8 C 70 % 1014,8 hPa 0,0 mm O-SO 107 9,7 km/h (2 Bft)
18.06.2019 11:35 23,8 C 69 % 1014,7 hPa 0,0 mm O-SO 109 8,0 km/h (2 Bft)
18.06.2019 11:40 23,8 C 68 % 1014,7 hPa 0,0 mm NO 53 8,0 km/h (2 Bft)
18.06.2019 11:45 24,2 C 70 % 1014,6 hPa 0,0 mm SO 145 8,0 km/h (2 Bft)
18.06.2019 11:50 24,2 C 69 % 1014,7 hPa 0,0 mm SO 124 8,0 km/h (2 Bft)
18.06.2019 11:55 24,4 C 69 % 1014,6 hPa 0,0 mm SO 141 11,3 km/h (2 Bft)
18.06.2019 12:00 24,9 C 73 % 1014,5 hPa 0,0 mm O 87 11,3 km/h (2 Bft)
18.06.2019 12:05 24,9 C 68 % 1014,5 hPa 0,0 mm S-SO 165 9,7 km/h (2 Bft)
18.06.2019 12:10 25,1 C 66 % 1014,5 hPa 0,0 mm SO 128 11,3 km/h (2 Bft)
18.06.2019 12:15 25,1 C 67 % 1014,4 hPa 0,0 mm O-SO 111 11,3 km/h (2 Bft)
18.06.2019 12:20 25,2 C 69 % 1014,4 hPa 0,0 mm O-SO 112 9,7 km/h (2 Bft)
18.06.2019 12:25 25,2 C 69 % 1014,3 hPa 0,0 mm O 83 12,9 km/h (3 Bft)
18.06.2019 12:30 25,2 C 68 % 1014,3 hPa 0,0 mm O-SO 119 14,5 km/h (3 Bft)
18.06.2019 12:35 25,3 C 67 % 1014,1 hPa 0,0 mm O-SO 120 12,9 km/h (3 Bft)
18.06.2019 12:40 25,4 C 67 % 1014,0 hPa 0,0 mm O 99 14,5 km/h (3 Bft)
18.06.2019 12:45 25,5 C 68 % 1014,0 hPa 0,0 mm O 91 14,5 km/h (3 Bft)
18.06.2019 12:50 25,6 C 71 % 1013,9 hPa 0,0 mm O-SO 111 11,3 km/h (2 Bft)
18.06.2019 12:55 25,7 C 66 % 1013,9 hPa 0,0 mm O 94 12,9 km/h (3 Bft)
18.06.2019 13:00 25,7 C 67 % 1013,9 hPa 0,0 mm O 95 12,9 km/h (3 Bft)
18.06.2019 13:05 25,6 C 63 % 1013,9 hPa 0,0 mm O-SO 107 16,1 km/h (3 Bft)
18.06.2019 13:10 25,7 C 61 % 1013,8 hPa 0,0 mm SO 132 9,7 km/h (2 Bft)
18.06.2019 13:15 25,8 C 58 % 1013,7 hPa 0,0 mm SO 136 12,9 km/h (3 Bft)
18.06.2019 13:20 25,8 C 69 % 1013,7 hPa 0,0 mm O-NO 68 12,9 km/h (3 Bft)
18.06.2019 13:25 26,0 C 67 % 1013,6 hPa 0,0 mm O-SO 107 11,3 km/h (2 Bft)
18.06.2019 13:30 26,1 C 67 % 1013,5 hPa 0,0 mm O-SO 115 14,5 km/h (3 Bft)
18.06.2019 13:35 26,1 C 64 % 1013,5 hPa 0,0 mm SO 133 14,5 km/h (3 Bft)
18.06.2019 13:40 26,0 C 60 % 1013,5 hPa 0,0 mm O-SO 115 14,5 km/h (3 Bft)
18.06.2019 13:45 26,2 C 67 % 1013,5 hPa 0,0 mm S-SO 147 11,3 km/h (2 Bft)
18.06.2019 13:50 26,1 C 59 % 1013,4 hPa 0,0 mm S-SO 168 11,3 km/h (2 Bft)
18.06.2019 13:55 26,2 C 57 % 1013,3 hPa 0,0 mm SO 138 14,5 km/h (3 Bft)
18.06.2019 14:00 26,3 C 65 % 1013,3 hPa 0,0 mm S-SO 148 12,9 km/h (3 Bft)
18.06.2019 14:05 26,5 C 64 % 1013,3 hPa 0,0 mm S-SO 158 12,9 km/h (3 Bft)
18.06.2019 14:10 26,5 C 62 % 1013,2 hPa 0,0 mm S 171 11,3 km/h (2 Bft)
18.06.2019 14:15 26,4 C 64 % 1013,2 hPa 0,0 mm SO 124 11,3 km/h (2 Bft)
18.06.2019 14:20 26,4 C 59 % 1013,2 hPa 0,0 mm S-SO 159 9,7 km/h (2 Bft)
18.06.2019 14:25 27,4 C 59 % 1013,2 hPa 0,0 mm SW 225 8,0 km/h (2 Bft)
18.06.2019 14:30 26,7 C 58 % 1013,1 hPa 0,0 mm S 177 11,3 km/h (2 Bft)
18.06.2019 14:35 27,1 C 57 % 1013,0 hPa 0,0 mm W 277 6,4 km/h (2 Bft)
18.06.2019 14:40 27,6 C 60 % 1013,0 hPa 0,0 mm SW 235 6,4 km/h (2 Bft)
18.06.2019 14:45 27,1 C 53 % 1013,0 hPa 0,0 mm O 99 11,3 km/h (2 Bft)
18.06.2019 14:50 26,9 C 53 % 1012,9 hPa 0,0 mm O-SO 105 12,9 km/h (3 Bft)
18.06.2019 14:55 27,2 C 56 % 1012,9 hPa 0,0 mm NO 56 16,1 km/h (3 Bft)
18.06.2019 15:00 27,3 C 50 % 1012,9 hPa 0,0 mm N-NO 14 11,3 km/h (2 Bft)
18.06.2019 15:05 27,4 C 54 % 1012,8 hPa 0,0 mm O-NO 60 6,4 km/h (2 Bft)
18.06.2019 15:10 27,3 C 48 % 1012,8 hPa 0,0 mm NO 44 9,7 km/h (2 Bft)
18.06.2019 15:15 27,1 C 52 % 1012,8 hPa 0,0 mm NO 51 16,1 km/h (3 Bft)
18.06.2019 15:20 27,3 C 50 % 1012,8 hPa 0,0 mm O-NO 65 9,7 km/h (2 Bft)
18.06.2019 15:25 27,3 C 47 % 1012,7 hPa 0,0 mm NO 34 9,7 km/h (2 Bft)
18.06.2019 15:30 27,0 C 48 % 1012,6 hPa 0,0 mm O 97 11,3 km/h (2 Bft)
18.06.2019 15:35 27,0 C 45 % 1012,6 hPa 0,0 mm NO 52 12,9 km/h (3 Bft)
18.06.2019 15:40 26,9 C 47 % 1012,6 hPa 0,0 mm SO 124 11,3 km/h (2 Bft)
18.06.2019 15:45 27,0 C 44 % 1012,6 hPa 0,0 mm O 88 9,7 km/h (2 Bft)
18.06.2019 15:50 26,9 C 46 % 1012,6 hPa 0,0 mm O-SO 107 11,3 km/h (2 Bft)
18.06.2019 15:55 27,0 C 48 % 1012,6 hPa 0,0 mm O-SO 106 12,9 km/h (3 Bft)
18.06.2019 16:00 27,1 C 51 % 1012,6 hPa 0,0 mm O-SO 119 12,9 km/h (3 Bft)
18.06.2019 16:05 27,0 C 47 % 1012,6 hPa 0,0 mm O-SO 118 6,4 km/h (2 Bft)
18.06.2019 16:10 27,1 C 45 % 1012,6 hPa 0,0 mm SO 126 8,0 km/h (2 Bft)
18.06.2019 16:15 27,0 C 44 % 1012,6 hPa 0,0 mm S-SO 150 6,4 km/h (2 Bft)
18.06.2019 16:20 27,1 C 46 % 1012,5 hPa 0,0 mm O 79 6,4 km/h (2 Bft)
18.06.2019 16:25 27,3 C 47 % 1012,4 hPa 0,0 mm O-SO 103 12,9 km/h (3 Bft)
18.06.2019 16:30 27,3 C 46 % 1012,3 hPa 0,0 mm NO 56 9,7 km/h (2 Bft)
18.06.2019 16:35 28,1 C 43 % 1012,3 hPa 0,0 mm NO 45 8,0 km/h (2 Bft)
18.06.2019 16:40 27,7 C 47 % 1012,3 hPa 0,0 mm O 92 9,7 km/h (2 Bft)
18.06.2019 16:45 27,3 C 43 % 1012,3 hPa 0,0 mm O 89 11,3 km/h (2 Bft)
18.06.2019 16:50 27,2 C 44 % 1012,2 hPa 0,0 mm W 280 8,0 km/h (2 Bft)
18.06.2019 16:55 28,3 C 43 % 1012,2 hPa 0,0 mm SW 220 8,0 km/h (2 Bft)
18.06.2019 17:00 28,8 C 39 % 1012,1 hPa 0,0 mm W 277 8,0 km/h (2 Bft)
18.06.2019 17:05 28,5 C 41 % 1012,1 hPa 0,0 mm W-NW 298 6,4 km/h (2 Bft)
18.06.2019 17:10 27,7 C 47 % 1012,1 hPa 0,0 mm SO 136 6,4 km/h (2 Bft)
18.06.2019 17:15 27,1 C 46 % 1012,1 hPa 0,0 mm SO 132 8,0 km/h (2 Bft)
18.06.2019 17:20 27,1 C 47 % 1012,1 hPa 0,0 mm O-SO 104 8,0 km/h (2 Bft)
18.06.2019 17:25 27,0 C 48 % 1012,1 hPa 0,0 mm O-NO 78 11,3 km/h (2 Bft)
18.06.2019 17:30 26,9 C 51 % 1012,0 hPa 0,0 mm O-SO 116 9,7 km/h (2 Bft)
18.06.2019 17:35 26,8 C 50 % 1011,9 hPa 0,0 mm O-NO 73 14,5 km/h (3 Bft)
18.06.2019 17:40 26,7 C 53 % 1012,0 hPa 0,0 mm O-NO 61 11,3 km/h (2 Bft)
18.06.2019 17:45 26,8 C 52 % 1012,0 hPa 0,0 mm O-NO 78 11,3 km/h (2 Bft)
18.06.2019 17:50 26,8 C 52 % 1012,0 hPa 0,0 mm NO 51 9,7 km/h (2 Bft)
18.06.2019 17:55 26,6 C 54 % 1012,0 hPa 0,0 mm O-NO 73 9,7 km/h (2 Bft)
18.06.2019 18:00 26,6 C 52 % 1012,0 hPa 0,0 mm O-NO 76 9,7 km/h (2 Bft)
18.06.2019 18:05 26,5 C 52 % 1011,9 hPa 0,0 mm O 80 9,7 km/h (2 Bft)
18.06.2019 18:10 26,3 C 54 % 1011,9 hPa 0,0 mm O-NO 61 9,7 km/h (2 Bft)
18.06.2019 18:15 26,2 C 53 % 1011,9 hPa 0,0 mm O-NO 68 6,4 km/h (2 Bft)
18.06.2019 18:20 26,0 C 56 % 1011,9 hPa 0,0 mm O 94 8,0 km/h (2 Bft)
18.06.2019 18:25 25,8 C 56 % 1011,8 hPa 0,0 mm O-NO 73 4,8 km/h (1 Bft)
18.06.2019 18:30 25,9 C 56 % 1011,8 hPa 0,0 mm O-NO 73 4,8 km/h (1 Bft)
18.06.2019 18:35 25,9 C 52 % 1011,7 hPa 0,0 mm NO 41 6,4 km/h (2 Bft)
18.06.2019 18:40 26,2 C 51 % 1011,6 hPa 0,0 mm N-NO 31 6,4 km/h (2 Bft)
18.06.2019 18:45 26,1 C 51 % 1011,7 hPa 0,0 mm NO 53 6,4 km/h (2 Bft)
18.06.2019 18:50 26,1 C 52 % 1011,6 hPa 0,0 mm NO 47 4,8 km/h (1 Bft)
18.06.2019 18:55 26,1 C 50 % 1011,6 hPa 0,0 mm N 5 6,4 km/h (2 Bft)
18.06.2019 19:00 26,2 C 50 % 1011,6 hPa 0,0 mm N 10 6,4 km/h (2 Bft)
18.06.2019 19:05 26,1 C 51 % 1011,6 hPa 0,0 mm N 10 3,2 km/h (1 Bft)
18.06.2019 19:10 26,0 C 52 % 1011,5 hPa 0,0 mm N-NO 32 4,8 km/h (1 Bft)
18.06.2019 19:15 25,9 C 56 % 1011,5 hPa 0,0 mm N-NO 32 1,6 km/h (1 Bft)
18.06.2019 19:20 25,7 C 58 % 1011,5 hPa 0,0 mm N-NO 32 3,2 km/h (1 Bft)
18.06.2019 19:25 25,5 C 58 % 1011,5 hPa 0,0 mm O-NO 73 3,2 km/h (1 Bft)
18.06.2019 19:30 25,4 C 59 % 1011,5 hPa 0,0 mm O-NO 73 1,6 km/h (1 Bft)
18.06.2019 19:35 25,3 C 63 % 1011,5 hPa 0,0 mm O-NO 73 1,6 km/h (1 Bft)
18.06.2019 19:40 25,1 C 59 % 1011,6 hPa 0,0 mm O 87 3,2 km/h (1 Bft)
18.06.2019 19:45 25,0 C 59 % 1011,6 hPa 0,0 mm O 87 3,2 km/h (1 Bft)
18.06.2019 19:50 24,9 C 63 % 1011,6 hPa 0,0 mm O 87 3,2 km/h (1 Bft)
18.06.2019 19:55 24,4 C 68 % 1011,7 hPa 0,0 mm O 87 3,2 km/h (1 Bft)
18.06.2019 20:00 23,8 C 68 % 1011,7 hPa 0,0 mm O 87 3,2 km/h (1 Bft)
18.06.2019 20:05 23,8 C 68 % 1011,7 hPa 0,0 mm O 87 1,6 km/h (1 Bft)
18.06.2019 20:10 23,6 C 67 % 1011,8 hPa 0,0 mm O 87 1,6 km/h (1 Bft)
18.06.2019 20:15 23,3 C 68 % 1011,8 hPa 0,0 mm O 87 0,0 km/h (0 Bft)
18.06.2019 20:20 23,0 C 69 % 1011,8 hPa 0,0 mm O 87 0,0 km/h (0 Bft)
18.06.2019 20:25 22,9 C 69 % 1011,8 hPa 0,0 mm O 87 1,6 km/h (1 Bft)
18.06.2019 20:30 22,8 C 69 % 1011,9 hPa 0,0 mm O 87 1,6 km/h (1 Bft)
18.06.2019 20:35 22,6 C 69 % 1011,9 hPa 0,0 mm O 87 0,0 km/h (0 Bft)
18.06.2019 20:40 22,6 C 69 % 1011,9 hPa 0,0 mm O 87 3,2 km/h (1 Bft)
18.06.2019 20:45 22,6 C 69 % 1011,9 hPa 0,0 mm O 87 1,6 km/h (1 Bft)
18.06.2019 20:50 22,6 C 68 % 1011,9 hPa 0,0 mm O 87 3,2 km/h (1 Bft)
18.06.2019 20:55 22,4 C 68 % 1011,9 hPa 0,0 mm O 87 3,2 km/h (1 Bft)
18.06.2019 21:00 22,3 C 68 % 1011,9 hPa 0,0 mm O 87 0,0 km/h (0 Bft)
18.06.2019 21:05 22,2 C 68 % 1012,0 hPa 0,0 mm O 87 0,0 km/h (0 Bft)
18.06.2019 21:10 22,0 C 68 % 1012,1 hPa 0,0 mm O 87 1,6 km/h (1 Bft)
18.06.2019 21:15 21,8 C 69 % 1012,0 hPa 0,0 mm O 87 1,6 km/h (1 Bft)
18.06.2019 21:20 21,5 C 69 % 1012,1 hPa 0,0 mm O 87 3,2 km/h (1 Bft)
18.06.2019 21:25 21,3 C 69 % 1012,1 hPa 0,0 mm O 87 0,0 km/h (0 Bft)
18.06.2019 21:30 21,1 C 69 % 1012,2 hPa 0,0 mm O 87 0,0 km/h (0 Bft)
18.06.2019 21:35 20,9 C 70 % 1012,3 hPa 0,0 mm O 87 0,0 km/h (0 Bft)
18.06.2019 21:40 20,8 C 70 % 1012,3 hPa 0,0 mm O 87 0,0 km/h (0 Bft)
18.06.2019 21:45 20,5 C 70 % 1012,3 hPa 0,0 mm O 87 0,0 km/h (0 Bft)
18.06.2019 21:50 20,3 C 71 % 1012,3 hPa 0,0 mm O 87 0,0 km/h (0 Bft)
18.06.2019 21:55 20,1 C 71 % 1012,3 hPa 0,0 mm O 87 0,0 km/h (0 Bft)
18.06.2019 22:00 19,9 C 71 % 1012,3 hPa 0,0 mm O 87 0,0 km/h (0 Bft)
18.06.2019 22:05 19,7 C 72 % 1012,3 hPa 0,0 mm O 87 0,0 km/h (0 Bft)
18.06.2019 22:10 19,5 C 73 % 1012,2 hPa 0,0 mm O 87 0,0 km/h (0 Bft)
18.06.2019 22:15 19,4 C 73 % 1012,3 hPa 0,0 mm O 87 0,0 km/h (0 Bft)
18.06.2019 22:20 19,2 C 73 % 1012,2 hPa 0,0 mm O 87 0,0 km/h (0 Bft)
18.06.2019 22:25 19,1 C 74 % 1012,2 hPa 0,0 mm O 87 0,0 km/h (0 Bft)
18.06.2019 22:30 18,9 C 74 % 1012,2 hPa 0,0 mm O 87 0,0 km/h (0 Bft)
18.06.2019 22:35 18,7 C 75 % 1012,2 hPa 0,0 mm O 87 0,0 km/h (0 Bft)
18.06.2019 22:40 18,6 C 76 % 1012,2 hPa 0,0 mm O 87 1,6 km/h (1 Bft)
18.06.2019 22:45 18,4 C 76 % 1012,2 hPa 0,0 mm O 87 0,0 km/h (0 Bft)
18.06.2019 22:50 18,3 C 77 % 1012,2 hPa 0,0 mm O 87 0,0 km/h (0 Bft)
18.06.2019 22:55 18,1 C 77 % 1012,2 hPa 0,0 mm O 87 0,0 km/h (0 Bft)
18.06.2019 23:00 18,0 C 77 % 1012,1 hPa 0,0 mm O 87 0,0 km/h (0 Bft)
18.06.2019 23:05 17,8 C 77 % 1012,1 hPa 0,0 mm O 87 0,0 km/h (0 Bft)
18.06.2019 23:10 17,7 C 78 % 1012,2 hPa 0,0 mm O 87 1,6 km/h (1 Bft)
18.06.2019 23:15 17,6 C 78 % 1012,2 hPa 0,0 mm O 87 1,6 km/h (1 Bft)
18.06.2019 23:20 17,5 C 78 % 1012,2 hPa 0,0 mm O 87 0,0 km/h (0 Bft)
18.06.2019 23:25 17,4 C 78 % 1012,3 hPa 0,0 mm O 87 0,0 km/h (0 Bft)
18.06.2019 23:30 17,2 C 78 % 1012,3 hPa 0,0 mm O 87 1,6 km/h (1 Bft)
18.06.2019 23:35 17,1 C 79 % 1012,3 hPa 0,0 mm O 87 3,2 km/h (1 Bft)
18.06.2019 23:40 17,0 C 79 % 1012,4 hPa 0,0 mm O 87 1,6 km/h (1 Bft)
18.06.2019 23:45 16,9 C 80 % 1012,4 hPa 0,0 mm O 87 1,6 km/h (1 Bft)
18.06.2019 23:50 16,9 C 81 % 1012,4 hPa 0,0 mm O 87 1,6 km/h (1 Bft)
18.06.2019 23:55 16,8 C 81 % 1012,4 hPa 0,0 mm O 87 1,6 km/h (1 Bft)
_ Min-Zeit 05:55 17:00 19:10 - - - 00:10
Minimum _ 12,2 C 39 % 1011,5 hPa - - - 0,0 km/h (0 Bft)
_ Max-Zeit 17:00 06:35 00:00 00:00 - - 13:05
Maximum _ 28,8 C 92 % 1016,1 hPa 0,0 mm - - 16,1 km/h
SO (3 Bft)
Durchschnitt _ 20,4 C 73 % 1014,0 hPa #0,0 mm O - 5,0 km/h (1 Bft)